createdAt,value
2023-03-22T00:02:16.406Z,10.86
2023-03-22T00:04:44.383Z,10.77
2023-03-22T00:07:12.209Z,10.78
2023-03-22T00:09:40.157Z,10.65
2023-03-22T00:12:09.488Z,10.69
2023-03-22T00:14:37.514Z,10.97
2023-03-22T00:17:05.447Z,10.99
2023-03-22T00:19:33.858Z,10.97
2023-03-22T00:22:02.027Z,10.87
2023-03-22T00:24:29.896Z,10.73
2023-03-22T00:26:58.648Z,10.63
2023-03-22T00:29:27.846Z,10.73
2023-03-22T00:31:56.066Z,10.74
2023-03-22T00:34:23.980Z,10.70
2023-03-22T00:36:52.066Z,10.70
2023-03-22T00:39:20.899Z,10.91
2023-03-22T00:41:48.816Z,10.85
2023-03-22T00:44:16.687Z,11.15
2023-03-22T00:46:47.290Z,11.08
2023-03-22T00:49:15.347Z,11.16
2023-03-22T00:51:43.135Z,10.92
2023-03-22T00:54:11.884Z,10.98
2023-03-22T00:56:39.813Z,11.06
2023-03-22T00:59:14.110Z,11.03
2023-03-22T01:01:44.342Z,10.91
2023-03-22T01:04:18.093Z,11.05
2023-03-22T01:06:47.068Z,10.94
2023-03-22T01:09:15.120Z,11.03
2023-03-22T01:11:43.798Z,11.23
2023-03-22T01:14:13.756Z,11.14
2023-03-22T01:16:41.693Z,11.20
2023-03-22T01:19:09.841Z,11.06
2023-03-22T01:21:39.150Z,11.12
2023-03-22T01:24:07.592Z,11.07
2023-03-22T01:26:35.787Z,10.84
2023-03-22T01:29:03.570Z,10.79
2023-03-22T01:31:31.420Z,10.66
2023-03-22T01:33:59.383Z,10.78
2023-03-22T01:36:27.609Z,10.75
2023-03-22T01:38:57.569Z,10.55
2023-03-22T01:41:25.436Z,10.76
2023-03-22T01:44:13.285Z,10.71
2023-03-22T01:46:41.380Z,10.53
2023-03-22T01:49:12.160Z,10.45
2023-03-22T01:51:43.800Z,10.50
2023-03-22T01:54:28.046Z,10.80
2023-03-22T01:56:56.373Z,10.99
2023-03-22T01:59:33.748Z,10.76
2023-03-22T02:02:30.852Z,10.76
2023-03-22T02:05:09.149Z,10.60
2023-03-22T02:07:38.320Z,10.58
2023-03-22T02:10:16.760Z,10.41
2023-03-22T02:13:07.148Z,10.28
2023-03-22T02:15:52.851Z,10.44
2023-03-22T02:19:05.539Z,10.47
2023-03-22T02:22:09.765Z,10.48
2023-03-22T02:25:17.557Z,10.28
2023-03-22T02:28:09.477Z,10.24
2023-03-22T02:31:01.282Z,10.26
2023-03-22T02:34:06.986Z,10.49
2023-03-22T02:36:59.894Z,10.55
2023-03-22T02:39:39.922Z,10.45
2023-03-22T02:42:27.530Z,10.44
2023-03-22T02:45:02.972Z,10.21
2023-03-22T02:47:40.645Z,10.24
2023-03-22T02:50:15.825Z,10.14
2023-03-22T02:52:51.249Z,9.95
2023-03-22T02:55:25.088Z,10.04
2023-03-22T02:57:58.996Z,10.14
2023-03-22T03:00:27.987Z,10.33
2023-03-22T03:03:01.134Z,10.15
2023-03-22T03:05:32.007Z,10.06
2023-03-22T03:08:03.839Z,10.14
2023-03-22T03:10:35.524Z,10.12
2023-03-22T03:13:03.435Z,10.00
2023-03-22T03:15:31.739Z,10.01
2023-03-22T03:18:19.743Z,9.99
2023-03-22T03:21:00.282Z,9.64
2023-03-22T03:23:35.873Z,9.70
2023-03-22T03:26:13.124Z,9.71
2023-03-22T03:28:49.931Z,9.55
2023-03-22T03:31:30.940Z,9.48
2023-03-22T03:34:05.046Z,9.42
2023-03-22T03:36:37.754Z,9.57
2023-03-22T03:39:11.025Z,9.56
2023-03-22T03:41:41.833Z,9.75
2023-03-22T03:44:10.867Z,9.48
2023-03-22T03:46:39.254Z,8.87
2023-03-22T03:49:09.954Z,8.94
2023-03-22T03:51:48.453Z,8.66
2023-03-22T03:54:16.451Z,8.97
2023-03-22T03:56:47.709Z,9.21
2023-03-22T03:59:16.914Z,9.39
2023-03-22T04:01:52.330Z,9.34
2023-03-22T04:04:29.539Z,9.42
2023-03-22T04:07:02.215Z,9.43
2023-03-22T04:09:35.258Z,9.27
2023-03-22T04:12:12.978Z,9.22
2023-03-22T04:14:41.723Z,9.18
2023-03-22T04:17:19.243Z,9.20
2023-03-22T04:19:47.126Z,9.21
2023-03-22T04:22:18.368Z,9.38
2023-03-22T04:24:50.207Z,9.45
2023-03-22T04:27:22.821Z,9.30
2023-03-22T04:30:11.620Z,9.35
2023-03-22T04:33:06.833Z,9.50
2023-03-22T04:36:16.051Z,9.51
2023-03-22T04:38:59.854Z,9.33
2023-03-22T04:41:29.434Z,9.15
2023-03-22T04:44:03.434Z,9.30
2023-03-22T04:46:34.800Z,9.18
2023-03-22T04:49:06.119Z,9.26
2023-03-22T04:51:37.640Z,9.13
2023-03-22T04:54:21.086Z,9.11
2023-03-22T04:56:50.047Z,9.32
2023-03-22T04:59:21.464Z,9.20
2023-03-22T05:01:51.410Z,9.17
2023-03-22T05:04:23.004Z,9.18
2023-03-22T05:06:56.249Z,9.30
2023-03-22T05:09:31.507Z,9.26
2023-03-22T05:11:59.308Z,9.23
2023-03-22T05:14:46.392Z,9.11
2023-03-22T05:17:17.606Z,9.20
2023-03-22T05:19:45.848Z,9.10
2023-03-22T05:22:13.964Z,9.19
2023-03-22T05:24:46.220Z,9.13
2023-03-22T05:27:31.685Z,9.29
2023-03-22T05:30:26.777Z,9.32
2023-03-22T05:33:04.095Z,9.50
2023-03-22T05:35:38.583Z,9.37
2023-03-22T05:38:08.077Z,9.10
2023-03-22T05:40:38.337Z,8.74
2023-03-22T05:43:06.587Z,8.81
2023-03-22T05:45:37.756Z,8.84
2023-03-22T05:48:13.612Z,9.10
2023-03-22T05:50:42.178Z,8.96
2023-03-22T05:53:11.593Z,9.13
2023-03-22T05:55:53.057Z,9.19
2023-03-22T05:58:21.181Z,9.19
2023-03-22T06:00:53.052Z,9.45
2023-03-22T06:03:41.134Z,9.43
2023-03-22T06:06:29.227Z,9.35
2023-03-22T06:09:23.166Z,9.21
2023-03-22T06:11:53.367Z,9.30
2023-03-22T06:14:21.309Z,9.24
2023-03-22T06:17:25.695Z,9.32
2023-03-22T06:19:55.376Z,9.54
2023-03-22T06:22:23.520Z,9.65
2023-03-22T06:24:51.677Z,9.64
2023-03-22T06:27:29.896Z,9.71
2023-03-22T06:29:57.732Z,9.54
2023-03-22T06:32:28.567Z,9.75
2023-03-22T06:34:57.711Z,9.65
2023-03-22T06:37:26.519Z,9.48
2023-03-22T06:39:55.379Z,9.89
2023-03-22T06:42:26.053Z,9.76
2023-03-22T06:45:04.331Z,9.99
2023-03-22T06:47:36.727Z,10.14
2023-03-22T06:50:04.908Z,10.17
2023-03-22T06:52:58.570Z,10.29
2023-03-22T06:55:26.372Z,10.36
2023-03-22T06:57:54.415Z,10.68
2023-03-22T07:00:47.295Z,10.41
2023-03-22T07:03:17.704Z,10.47
2023-03-22T07:06:02.652Z,10.72
2023-03-22T07:08:33.217Z,11.04
2023-03-22T07:11:01.093Z,11.06
2023-03-22T07:13:29.789Z,11.16
2023-03-22T07:16:03.785Z,11.53
2023-03-22T07:18:46.442Z,11.83
2023-03-22T07:21:14.430Z,12.15
2023-03-22T07:23:44.136Z,11.91
2023-03-22T07:26:15.771Z,12.01
2023-03-22T07:28:47.061Z,12.06
2023-03-22T07:31:17.933Z,12.27
2023-03-22T07:33:59.147Z,12.58
2023-03-22T07:36:29.972Z,12.48
2023-03-22T07:38:58.152Z,12.86
2023-03-22T07:41:30.670Z,13.09
2023-03-22T07:44:25.169Z,13.03
2023-03-22T07:47:11.581Z,12.93
2023-03-22T07:50:04.040Z,12.95
2023-03-22T07:52:33.604Z,12.82
2023-03-22T07:55:01.690Z,12.74
2023-03-22T07:57:29.495Z,12.86
2023-03-22T08:00:00.754Z,12.85
2023-03-22T08:02:54.080Z,12.95
2023-03-22T08:05:42.813Z,12.96
2023-03-22T08:08:13.647Z,12.68
2023-03-22T08:10:41.916Z,12.82
2023-03-22T08:13:09.788Z,12.86
2023-03-22T08:15:38.595Z,13.21
2023-03-22T08:18:08.664Z,13.07
2023-03-22T08:20:40.541Z,12.99
2023-03-22T08:23:16.125Z,13.01
2023-03-22T08:25:58.225Z,13.30
2023-03-22T08:28:26.191Z,13.43
2023-03-22T08:30:54.777Z,13.36
2023-03-22T08:33:23.802Z,13.37
2023-03-22T08:35:52.584Z,13.51
2023-03-22T08:38:22.273Z,13.71
2023-03-22T08:40:54.169Z,13.62
2023-03-22T08:43:25.166Z,13.60
2023-03-22T08:45:53.755Z,13.87
2023-03-22T08:48:22.087Z,13.93
2023-03-22T08:51:08.944Z,13.90
2023-03-22T08:53:52.990Z,14.12
2023-03-22T08:56:41.778Z,14.07
2023-03-22T08:59:19.903Z,14.14
2023-03-22T09:02:06.459Z,14.22
2023-03-22T09:04:34.430Z,14.58
2023-03-22T09:07:03.791Z,14.63
2023-03-22T09:09:33.137Z,14.59
2023-03-22T09:12:01.065Z,14.50
2023-03-22T09:14:29.478Z,14.43
2023-03-22T09:16:58.795Z,14.53
2023-03-22T09:19:27.472Z,14.60
2023-03-22T09:21:55.610Z,14.72
2023-03-22T09:24:42.158Z,14.74
2023-03-22T09:27:10.285Z,14.95
2023-03-22T09:29:38.514Z,14.90
2023-03-22T09:32:10.902Z,14.80
2023-03-22T09:34:40.694Z,14.67
2023-03-22T09:37:08.901Z,14.68
2023-03-22T09:39:50.168Z,14.68
2023-03-22T09:42:34.788Z,14.86
2023-03-22T09:45:07.724Z,14.90
2023-03-22T09:47:44.820Z,14.90
2023-03-22T09:50:16.318Z,14.97
2023-03-22T09:52:45.052Z,15.21
2023-03-22T09:55:20.563Z,14.99
2023-03-22T09:57:54.958Z,14.92
2023-03-22T10:00:49.545Z,15.28
2023-03-22T10:03:30.509Z,15.57
2023-03-22T10:06:03.733Z,15.82
2023-03-22T10:08:43.209Z,15.85
2023-03-22T10:11:22.502Z,15.82
2023-03-22T10:13:59.970Z,16.01
2023-03-22T10:16:32.819Z,16.20
2023-03-22T10:19:08.762Z,16.32
2023-03-22T10:21:37.240Z,16.46
2023-03-22T10:24:14.590Z,16.31
2023-03-22T10:26:47.650Z,16.26
2023-03-22T10:29:23.245Z,16.48
2023-03-22T10:31:51.191Z,16.19
2023-03-22T10:34:22.699Z,16.15
2023-03-22T10:36:52.951Z,16.13
2023-03-22T10:39:31.652Z,16.24
2023-03-22T10:42:03.988Z,16.24
2023-03-22T10:44:37.013Z,16.17
2023-03-22T10:47:08.310Z,16.19
2023-03-22T10:49:40.430Z,16.34
2023-03-22T10:52:23.998Z,16.43
2023-03-22T10:54:52.045Z,16.31
2023-03-22T10:57:21.209Z,16.22
2023-03-22T10:59:51.203Z,16.50
2023-03-22T11:02:23.930Z,16.71
2023-03-22T11:04:53.803Z,16.59
2023-03-22T11:07:34.728Z,16.60
2023-03-22T11:10:27.404Z,16.57
2023-03-22T11:13:11.789Z,16.68
2023-03-22T11:15:42.110Z,16.86
2023-03-22T11:18:15.737Z,17.11
2023-03-22T11:20:53.236Z,17.16
2023-03-22T11:23:22.354Z,17.26
2023-03-22T11:25:51.995Z,17.07
2023-03-22T11:28:23.990Z,16.82
2023-03-22T11:31:00.992Z,17.11
2023-03-22T11:33:29.184Z,17.13
2023-03-22T11:35:58.807Z,17.05
2023-03-22T11:38:30.561Z,17.01
2023-03-22T11:41:02.648Z,17.05
2023-03-22T11:43:37.482Z,17.18
2023-03-22T11:46:06.543Z,16.95
2023-03-22T11:48:36.270Z,17.04
2023-03-22T11:51:11.121Z,17.11
2023-03-22T11:53:41.950Z,17.22
2023-03-22T11:56:12.621Z,16.95
2023-03-22T11:59:07.634Z,17.21
2023-03-22T12:01:41.814Z,17.16
2023-03-22T12:04:21.036Z,16.92
2023-03-22T12:06:50.405Z,17.18
2023-03-22T12:09:26.981Z,17.42
2023-03-22T12:11:57.778Z,17.76
2023-03-22T12:14:31.037Z,18.01
2023-03-22T12:17:02.482Z,18.12
2023-03-22T12:19:49.656Z,17.95
2023-03-22T12:22:21.937Z,18.11
2023-03-22T12:24:49.723Z,17.84
2023-03-22T12:27:21.800Z,17.95
2023-03-22T12:29:55.711Z,18.21
2023-03-22T12:32:27.894Z,17.95
2023-03-22T12:35:09.092Z,17.85
2023-03-22T12:37:44.311Z,17.92
2023-03-22T12:40:21.770Z,17.67
2023-03-22T12:43:00.122Z,18.00
2023-03-22T12:45:32.767Z,18.27
2023-03-22T12:48:07.275Z,18.37
2023-03-22T12:50:39.729Z,18.58
2023-03-22T12:53:12.463Z,18.51
2023-03-22T12:55:42.054Z,18.33
2023-03-22T12:58:11.613Z,18.50
2023-03-22T13:00:46.792Z,18.58
2023-03-22T13:03:26.785Z,18.50
2023-03-22T13:06:02.789Z,18.70
2023-03-22T13:09:13.163Z,18.78
2023-03-22T13:11:41.185Z,18.55
2023-03-22T13:14:12.530Z,18.75
2023-03-22T13:16:50.996Z,18.83
2023-03-22T13:19:28.821Z,18.84
2023-03-22T13:22:16.508Z,19.04
2023-03-22T13:25:14.411Z,19.13
2023-03-22T13:27:51.252Z,19.28
2023-03-22T13:30:25.826Z,19.04
2023-03-22T13:32:58.069Z,18.99
2023-03-22T13:35:29.019Z,19.02
2023-03-22T13:38:03.783Z,19.08
2023-03-22T13:40:37.767Z,19.04
2023-03-22T13:43:24.664Z,18.97
2023-03-22T13:46:07.276Z,18.62
2023-03-22T13:48:45.852Z,18.66
2023-03-22T13:51:18.477Z,18.87
2023-03-22T13:53:57.628Z,19.06
2023-03-22T13:56:33.677Z,18.89
2023-03-22T13:59:04.866Z,18.89
2023-03-22T14:01:36.219Z,18.89
2023-03-22T14:04:12.240Z,19.06
2023-03-22T14:06:49.983Z,18.88
2023-03-22T14:09:27.057Z,18.80
2023-03-22T14:12:00.854Z,18.84
2023-03-22T14:14:33.502Z,18.61
2023-03-22T14:17:04.997Z,19.23
2023-03-22T14:19:37.650Z,19.55
